CYCO

Kugluktuk Airport

Kugluktuk, Canada
METAR CYCO 171700Z 00000KT 15SM SCT026 BKN045 BKN070 M06/M08 A2967 RMK SC4SC1AC2 SLP051
Observed Flight Rules
Oct-17 @ 17:00 UTC (an hour ago) Visual Flight Rules
Visibility Clouds
15 miles
  • Scattered at 2,600' AGL
  • Broken at 4,500' AGL
  • Broken at 7,000' AGL
Temperatures Readings
Current -6°C / 21°F
Dewpoint -8°C / 18°F
Humidity 86%
Altimeter 29.67" Hg
Pressure 1005.1 hPa
Elevation 22
METAR CYCO 171700Z 00000KT 15SM SCT026 BKN045 BKN070 M06/M08 A2967 RMK SC4SC1AC2 SLP051
Observed Flight Rules
Oct-17 @ 17:00 UTC
(an hour ago)
VFR
Clouds
  • Scattered at 2,600' AGL
  • Broken at 4,500' AGL
  • Broken at 7,000' AGL
Temperature Dewpoint
-6°C / 21°F -8°C / 18°F
Humidity Altimeter Pressure
86% 29.67" Hg 1005.1 hPa